sensor_id;sensor_type;location;lat;lon;timestamp;pressure;altitude;pressure_sealevel;temperature;humidity
12757;BME280;31601;48.042;12.240;2022-11-14T00:00:22;96290.78;;;3.02;73.89
12757;BME280;31601;48.042;12.240;2022-11-14T00:02:48;96283.00;;;2.92;73.89
12757;BME280;31601;48.042;12.240;2022-11-14T00:05:15;96289.59;;;2.65;74.70
12757;BME280;31601;48.042;12.240;2022-11-14T00:07:41;96285.47;;;2.43;75.32
12757;BME280;31601;48.042;12.240;2022-11-14T00:10:10;96289.72;;;2.44;74.91
12757;BME280;31601;48.042;12.240;2022-11-14T00:12:36;96285.88;;;2.39;74.96
12757;BME280;31601;48.042;12.240;2022-11-14T00:15:03;96292.97;;;2.46;74.77
12757;BME280;31601;48.042;12.240;2022-11-14T00:17:30;96289.91;;;2.31;74.88
12757;BME280;31601;48.042;12.240;2022-11-14T00:19:57;96278.50;;;2.34;74.93
12757;BME280;31601;48.042;12.240;2022-11-14T00:22:23;96274.34;;;2.12;75.03
12757;BME280;31601;48.042;12.240;2022-11-14T00:24:50;96279.25;;;2.15;75.61
12757;BME280;31601;48.042;12.240;2022-11-14T00:27:17;96284.16;;;2.18;75.55
12757;BME280;31601;48.042;12.240;2022-11-14T00:29:44;96285.13;;;2.27;75.38
12757;BME280;31601;48.042;12.240;2022-11-14T00:32:10;96287.09;;;2.04;75.95
12757;BME280;31601;48.042;12.240;2022-11-14T00:34:37;96277.50;;;1.94;75.78
12757;BME280;31601;48.042;12.240;2022-11-14T00:37:03;96272.50;;;1.72;76.37
12757;BME280;31601;48.042;12.240;2022-11-14T00:39:30;96280.00;;;1.75;76.56
12757;BME280;31601;48.042;12.240;2022-11-14T00:41:56;96279.84;;;1.97;76.25
12757;BME280;31601;48.042;12.240;2022-11-14T00:44:24;96267.50;;;2.11;75.66
12757;BME280;31601;48.042;12.240;2022-11-14T00:46:51;96266.13;;;2.07;75.68
12757;BME280;31601;48.042;12.240;2022-11-14T00:49:17;96263.19;;;2.21;75.36
12757;BME280;31601;48.042;12.240;2022-11-14T00:51:44;96258.88;;;2.01;75.70
12757;BME280;31601;48.042;12.240;2022-11-14T00:54:10;96254.69;;;2.09;75.80
12757;BME280;31601;48.042;12.240;2022-11-14T00:56:37;96263.72;;;2.15;75.72
12757;BME280;31601;48.042;12.240;2022-11-14T00:59:04;96241.53;;;2.22;75.59
12757;BME280;31601;48.042;12.240;2022-11-14T01:01:31;96242.25;;;2.34;75.17
12757;BME280;31601;48.042;12.240;2022-11-14T01:03:58;96228.44;;;2.24;75.73
12757;BME280;31601;48.042;12.240;2022-11-14T01:06:25;96231.34;;;2.30;75.26
12757;BME280;31601;48.042;12.240;2022-11-14T01:08:51;96223.19;;;2.35;74.98
12757;BME280;31601;48.042;12.240;2022-11-14T01:11:20;96228.50;;;2.43;75.03
12757;BME280;31601;48.042;12.240;2022-11-14T01:13:47;96237.91;;;2.44;74.67
12757;BME280;31601;48.042;12.240;2022-11-14T01:16:13;96257.28;;;2.50;74.81
12757;BME280;31601;48.042;12.240;2022-11-14T01:18:41;96255.66;;;2.49;74.70
12757;BME280;31601;48.042;12.240;2022-11-14T01:21:10;96243.91;;;2.45;74.89
12757;BME280;31601;48.042;12.240;2022-11-14T01:23:37;96248.00;;;2.47;74.43
12757;BME280;31601;48.042;12.240;2022-11-14T01:26:05;96260.25;;;2.45;74.26
12757;BME280;31601;48.042;12.240;2022-11-14T01:28:32;96259.97;;;2.39;74.31
12757;BME280;31601;48.042;12.240;2022-11-14T01:31:07;96242.91;;;2.36;74.15
12757;BME280;31601;48.042;12.240;2022-11-14T01:33:33;96247.44;;;2.44;74.39
12757;BME280;31601;48.042;12.240;2022-11-14T01:36:01;96250.44;;;2.39;74.27
12757;BME280;31601;48.042;12.240;2022-11-14T01:38:28;96258.78;;;2.43;74.11
12757;BME280;31601;48.042;12.240;2022-11-14T01:40:54;96261.03;;;2.36;74.02
12757;BME280;31601;48.042;12.240;2022-11-14T01:43:29;96264.22;;;2.40;74.06
12757;BME280;31601;48.042;12.240;2022-11-14T01:45:59;96249.34;;;2.42;74.09
12757;BME280;31601;48.042;12.240;2022-11-14T01:48:32;96244.28;;;2.30;73.82
12757;BME280;31601;48.042;12.240;2022-11-14T01:51:13;96236.53;;;2.30;73.91
12757;BME280;31601;48.042;12.240;2022-11-14T01:53:42;96244.28;;;2.30;73.80
12757;BME280;31601;48.042;12.240;2022-11-14T01:56:12;96237.34;;;2.31;73.82
12757;BME280;31601;48.042;12.240;2022-11-14T01:58:42;96231.94;;;2.13;73.85
12757;BME280;31601;48.042;12.240;2022-11-14T02:01:10;96234.47;;;2.24;73.73
12757;BME280;31601;48.042;12.240;2022-11-14T02:03:38;96223.66;;;2.19;73.82
12757;BME280;31601;48.042;12.240;2022-11-14T02:06:08;96213.72;;;2.14;73.53
12757;BME280;31601;48.042;12.240;2022-11-14T02:08:38;96218.34;;;2.11;73.45
12757;BME280;31601;48.042;12.240;2022-11-14T02:11:05;96205.66;;;2.08;73.32
12757;BME280;31601;48.042;12.240;2022-11-14T02:13:31;96214.63;;;2.04;73.65
12757;BME280;31601;48.042;12.240;2022-11-14T02:15:58;96204.78;;;1.97;73.28
12757;BME280;31601;48.042;12.240;2022-11-14T02:18:24;96201.13;;;1.90;73.27
12757;BME280;31601;48.042;12.240;2022-11-14T02:20:52;96185.84;;;1.56;73.77
12757;BME280;31601;48.042;12.240;2022-11-14T02:23:25;96182.78;;;1.41;74.61
12757;BME280;31601;48.042;12.240;2022-11-14T02:25:52;96189.75;;;1.72;73.96
12757;BME280;31601;48.042;12.240;2022-11-14T02:28:19;96191.09;;;1.76;74.38
12757;BME280;31601;48.042;12.240;2022-11-14T02:30:46;96179.44;;;1.91;74.23
12757;BME280;31601;48.042;12.240;2022-11-14T02:33:13;96182.75;;;1.93;74.25
12757;BME280;31601;48.042;12.240;2022-11-14T02:35:40;96186.88;;;2.06;73.92
12757;BME280;31601;48.042;12.240;2022-11-14T02:38:08;96193.63;;;1.97;74.30
12757;BME280;31601;48.042;12.240;2022-11-14T02:40:34;96193.63;;;1.87;74.73
12757;BME280;31601;48.042;12.240;2022-11-14T02:43:01;96191.06;;;1.97;74.80
12757;BME280;31601;48.042;12.240;2022-11-14T02:45:27;96198.81;;;1.97;74.95
12757;BME280;31601;48.042;12.240;2022-11-14T02:47:54;96206.84;;;2.04;75.09
12757;BME280;31601;48.042;12.240;2022-11-14T02:50:20;96204.78;;;1.97;75.54
12757;BME280;31601;48.042;12.240;2022-11-14T02:52:47;96212.44;;;1.99;75.71
12757;BME280;31601;48.042;12.240;2022-11-14T02:55:15;96217.97;;;2.25;75.11
12757;BME280;31601;48.042;12.240;2022-11-14T02:57:41;96211.03;;;2.36;74.91
12757;BME280;31601;48.042;12.240;2022-11-14T03:00:08;96210.78;;;2.39;74.66
12757;BME280;31601;48.042;12.240;2022-11-14T03:02:35;96208.47;;;2.36;74.64
12757;BME280;31601;48.042;12.240;2022-11-14T03:05:02;96204.94;;;2.37;74.33
12757;BME280;31601;48.042;12.240;2022-11-14T03:07:29;96200.16;;;2.32;74.55
12757;BME280;31601;48.042;12.240;2022-11-14T03:09:55;96191.78;;;2.09;74.34
12757;BME280;31601;48.042;12.240;2022-11-14T03:12:23;96189.31;;;2.07;74.52
12757;BME280;31601;48.042;12.240;2022-11-14T03:14:50;96191.47;;;2.02;74.38
12757;BME280;31601;48.042;12.240;2022-11-14T03:17:16;96192.25;;;1.93;74.93
12757;BME280;31601;48.042;12.240;2022-11-14T03:19:43;96186.66;;;1.88;74.57
12757;BME280;31601;48.042;12.240;2022-11-14T03:22:09;96192.34;;;1.82;74.85
12757;BME280;31601;48.042;12.240;2022-11-14T03:24:36;96191.06;;;1.66;74.63
12757;BME280;31601;48.042;12.240;2022-11-14T03:27:02;96192.56;;;1.38;74.82
12757;BME280;31601;48.042;12.240;2022-11-14T03:29:30;96198.34;;;1.51;74.50
12757;BME280;31601;48.042;12.240;2022-11-14T03:31:56;96210.06;;;1.55;74.34
12757;BME280;31601;48.042;12.240;2022-11-14T03:34:23;96220.78;;;1.72;73.81
12757;BME280;31601;48.042;12.240;2022-11-14T03:36:49;96206.81;;;1.53;74.53
12757;BME280;31601;48.042;12.240;2022-11-14T03:39:16;96200.66;;;1.54;74.41
12757;BME280;31601;48.042;12.240;2022-11-14T03:41:42;96208.69;;;1.51;74.20
12757;BME280;31601;48.042;12.240;2022-11-14T03:44:09;96210.06;;;1.55;74.19
12757;BME280;31601;48.042;12.240;2022-11-14T03:46:37;96208.94;;;1.48;74.22
12757;BME280;31601;48.042;12.240;2022-11-14T03:49:03;96204.50;;;1.60;73.83
12757;BME280;31601;48.042;12.240;2022-11-14T03:51:30;96197.03;;;1.67;73.89
12757;BME280;31601;48.042;12.240;2022-11-14T03:53:57;96198.69;;;1.68;74.01
12757;BME280;31601;48.042;12.240;2022-11-14T03:56:23;96190.41;;;1.74;73.57
12757;BME280;31601;48.042;12.240;2022-11-14T03:58:50;96201.69;;;1.73;73.90
12757;BME280;31601;48.042;12.240;2022-11-14T04:01:16;96204.88;;;1.76;73.85
12757;BME280;31601;48.042;12.240;2022-11-14T04:03:44;96204.47;;;1.50;74.66
12757;BME280;31601;48.042;12.240;2022-11-14T04:06:11;96202.66;;;1.41;75.11
12757;BME280;31601;48.042;12.240;2022-11-14T04:08:38;96199.59;;;1.36;74.94
12757;BME280;31601;48.042;12.240;2022-11-14T04:11:05;96192.06;;;1.23;75.23
12757;BME280;31601;48.042;12.240;2022-11-14T04:13:32;96193.25;;;1.40;74.91
12757;BME280;31601;48.042;12.240;2022-11-14T04:15:59;96200.63;;;1.45;74.51
12757;BME280;31601;48.042;12.240;2022-11-14T04:18:25;96191.28;;;1.53;74.29
12757;BME280;31601;48.042;12.240;2022-11-14T04:20:53;96193.09;;;1.63;74.09
12757;BME280;31601;48.042;12.240;2022-11-14T04:23:20;96177.47;;;1.64;73.99
12757;BME280;31601;48.042;12.240;2022-11-14T04:25:47;96176.06;;;1.60;74.29
12757;BME280;31601;48.042;12.240;2022-11-14T04:28:13;96174.53;;;1.57;74.07
12757;BME280;31601;48.042;12.240;2022-11-14T04:30:40;96187.47;;;1.57;74.46
12757;BME280;31601;48.042;12.240;2022-11-14T04:33:07;96177.59;;;1.63;74.40
12757;BME280;31601;48.042;12.240;2022-11-14T04:35:33;96181.78;;;1.64;74.07
12757;BME280;31601;48.042;12.240;2022-11-14T04:38:02;96176.94;;;1.39;74.80
12757;BME280;31601;48.042;12.240;2022-11-14T04:40:28;96186.63;;;1.47;74.78
12757;BME280;31601;48.042;12.240;2022-11-14T04:42:55;96176.81;;;1.20;75.22
12757;BME280;31601;48.042;12.240;2022-11-14T04:45:22;96175.63;;;1.24;75.87
12757;BME280;31601;48.042;12.240;2022-11-14T04:47:48;96177.81;;;1.29;75.10
12757;BME280;31601;48.042;12.240;2022-11-14T04:50:15;96171.63;;;1.20;75.82
12757;BME280;31601;48.042;12.240;2022-11-14T04:52:42;96172.56;;;1.19;75.46
12757;BME280;31601;48.042;12.240;2022-11-14T04:55:10;96173.41;;;1.19;75.40
12757;BME280;31601;48.042;12.240;2022-11-14T04:57:36;96183.59;;;1.42;74.91
12757;BME280;31601;48.042;12.240;2022-11-14T05:00:04;96198.03;;;1.45;74.71
12757;BME280;31601;48.042;12.240;2022-11-14T05:02:31;96206.19;;;1.40;74.76
12757;BME280;31601;48.042;12.240;2022-11-14T05:04:57;96198.34;;;1.51;74.81
12757;BME280;31601;48.042;12.240;2022-11-14T05:07:24;96197.47;;;1.41;74.80
12757;BME280;31601;48.042;12.240;2022-11-14T05:09:50;96185.25;;;1.43;74.57
12757;BME280;31601;48.042;12.240;2022-11-14T05:12:18;96180.88;;;1.43;74.08
12757;BME280;31601;48.042;12.240;2022-11-14T05:14:45;96193.38;;;1.38;74.20
12757;BME280;31601;48.042;12.240;2022-11-14T05:17:11;96188.16;;;1.29;74.34
12757;BME280;31601;48.042;12.240;2022-11-14T05:19:38;96196.28;;;1.24;74.17
12757;BME280;31601;48.042;12.240;2022-11-14T05:22:04;96202.06;;;1.37;74.22
12757;BME280;31601;48.042;12.240;2022-11-14T05:24:31;96202.28;;;1.24;74.46
12757;BME280;31601;48.042;12.240;2022-11-14T05:26:57;96198.84;;;1.45;74.44
12757;BME280;31601;48.042;12.240;2022-11-14T05:29:25;96204.34;;;1.31;74.77
12757;BME280;31601;48.042;12.240;2022-11-14T05:31:52;96206.38;;;1.27;74.98
12757;BME280;31601;48.042;12.240;2022-11-14T05:34:18;96212.75;;;1.44;74.87
12757;BME280;31601;48.042;12.240;2022-11-14T05:36:45;96220.41;;;1.55;74.61
12757;BME280;31601;48.042;12.240;2022-11-14T05:39:11;96218.06;;;1.52;74.85
12757;BME280;31601;48.042;12.240;2022-11-14T05:41:38;96210.09;;;1.65;74.57
12757;BME280;31601;48.042;12.240;2022-11-14T05:44:05;96219.81;;;1.73;74.60
12757;BME280;31601;48.042;12.240;2022-11-14T05:46:33;96213.34;;;1.57;74.71
12757;BME280;31601;48.042;12.240;2022-11-14T05:48:59;96218.31;;;1.70;74.50
12757;BME280;31601;48.042;12.240;2022-11-14T05:51:26;96212.31;;;1.70;74.59
12757;BME280;31601;48.042;12.240;2022-11-14T05:53:52;96216.03;;;1.77;74.28
12757;BME280;31601;48.042;12.240;2022-11-14T05:56:19;96212.47;;;1.47;74.56
12757;BME280;31601;48.042;12.240;2022-11-14T05:58:46;96211.91;;;1.74;74.36
12757;BME280;31601;48.042;12.240;2022-11-14T06:01:14;96219.25;;;1.69;74.09
12757;BME280;31601;48.042;12.240;2022-11-14T06:03:44;96220.72;;;1.62;73.94
12757;BME280;31601;48.042;12.240;2022-11-14T06:06:12;96224.16;;;1.72;74.07
12757;BME280;31601;48.042;12.240;2022-11-14T06:08:39;96230.88;;;1.75;73.81
12757;BME280;31601;48.042;12.240;2022-11-14T06:11:08;96233.25;;;1.67;73.92
12757;BME280;31601;48.042;12.240;2022-11-14T06:13:36;96238.16;;;1.70;73.85
12757;BME280;31601;48.042;12.240;2022-11-14T06:16:05;96245.66;;;1.73;73.75
12757;BME280;31601;48.042;12.240;2022-11-14T06:18:32;96237.84;;;1.53;74.23
12757;BME280;31601;48.042;12.240;2022-11-14T06:21:02;96240.59;;;1.61;73.71
12757;BME280;31601;48.042;12.240;2022-11-14T06:23:29;96243.44;;;1.58;73.74
12757;BME280;31601;48.042;12.240;2022-11-14T06:25:58;96242.09;;;1.64;73.82
12757;BME280;31601;48.042;12.240;2022-11-14T06:28:25;96252.13;;;1.57;74.12
12757;BME280;31601;48.042;12.240;2022-11-14T06:30:55;96253.13;;;1.66;73.84
12757;BME280;31601;48.042;12.240;2022-11-14T06:33:22;96244.94;;;1.61;73.36
12757;BME280;31601;48.042;12.240;2022-11-14T06:35:48;96244.31;;;1.69;73.33
12757;BME280;31601;48.042;12.240;2022-11-14T06:38:16;96233.09;;;1.58;73.51
12757;BME280;31601;48.042;12.240;2022-11-14T06:40:43;96240.06;;;1.68;73.62
12757;BME280;31601;48.042;12.240;2022-11-14T06:43:09;96231.75;;;1.64;73.61
12757;BME280;31601;48.042;12.240;2022-11-14T06:45:36;96238.00;;;1.61;73.81
12757;BME280;31601;48.042;12.240;2022-11-14T06:48:02;96245.06;;;1.59;74.35
12757;BME280;31601;48.042;12.240;2022-11-14T06:50:29;96237.06;;;1.63;74.41
12757;BME280;31601;48.042;12.240;2022-11-14T06:52:56;96230.91;;;1.85;73.97
12757;BME280;31601;48.042;12.240;2022-11-14T06:55:24;96241.16;;;1.96;73.87
12757;BME280;31601;48.042;12.240;2022-11-14T06:57:52;96269.94;;;2.03;73.62
12757;BME280;31601;48.042;12.240;2022-11-14T07:00:19;96262.84;;;1.74;74.11
12757;BME280;31601;48.042;12.240;2022-11-14T07:02:46;96249.22;;;2.03;73.33
12757;BME280;31601;48.042;12.240;2022-11-14T07:05:13;96234.50;;;2.03;73.18
12757;BME280;31601;48.042;12.240;2022-11-14T07:07:40;96238.63;;;2.06;73.01
12757;BME280;31601;48.042;12.240;2022-11-14T07:10:07;96235.38;;;2.13;73.04
12757;BME280;31601;48.042;12.240;2022-11-14T07:12:35;96252.00;;;2.21;72.90
12757;BME280;31601;48.042;12.240;2022-11-14T07:15:01;96248.44;;;2.12;73.12
12757;BME280;31601;48.042;12.240;2022-11-14T07:17:27;96242.31;;;2.13;73.47
12757;BME280;31601;48.042;12.240;2022-11-14T07:19:54;96250.06;;;2.13;73.54
12757;BME280;31601;48.042;12.240;2022-11-14T07:22:20;96242.16;;;2.05;73.51
12757;BME280;31601;48.042;12.240;2022-11-14T07:24:47;96233.59;;;2.14;73.30
12757;BME280;31601;48.042;12.240;2022-11-14T07:27:13;96239.50;;;2.26;73.33
12757;BME280;31601;48.042;12.240;2022-11-14T07:29:41;96249.41;;;2.21;73.56
12757;BME280;31601;48.042;12.240;2022-11-14T07:32:08;96242.41;;;2.42;73.42
12757;BME280;31601;48.042;12.240;2022-11-14T07:34:34;96240.13;;;2.59;73.64
12757;BME280;31601;48.042;12.240;2022-11-14T07:37:01;96239.44;;;2.66;73.34
12757;BME280;31601;48.042;12.240;2022-11-14T07:39:27;96246.94;;;2.69;73.01
12757;BME280;31601;48.042;12.240;2022-11-14T07:41:54;96240.13;;;2.68;73.27
12757;BME280;31601;48.042;12.240;2022-11-14T07:44:20;96252.44;;;2.86;73.08
12757;BME280;31601;48.042;12.240;2022-11-14T07:46:48;96254.09;;;2.97;73.00
12757;BME280;31601;48.042;12.240;2022-11-14T07:49:16;96250.66;;;2.96;72.95
12757;BME280;31601;48.042;12.240;2022-11-14T07:51:43;96238.13;;;3.11;72.80
12757;BME280;31601;48.042;12.240;2022-11-14T07:54:09;96237.16;;;3.22;72.16
12757;BME280;31601;48.042;12.240;2022-11-14T07:56:37;96237.44;;;3.19;72.07
12757;BME280;31601;48.042;12.240;2022-11-14T07:59:04;96241.53;;;2.92;72.56
12757;BME280;31601;48.042;12.240;2022-11-14T08:01:30;96222.81;;;3.18;72.72
12757;BME280;31601;48.042;12.240;2022-11-14T08:03:58;96237.81;;;3.44;72.47
12757;BME280;31601;48.042;12.240;2022-11-14T08:06:25;96223.53;;;3.20;72.11
12757;BME280;31601;48.042;12.240;2022-11-14T08:08:51;96226.75;;;3.32;72.19
12757;BME280;31601;48.042;12.240;2022-11-14T08:11:18;96233.19;;;3.37;71.86
12757;BME280;31601;48.042;12.240;2022-11-14T08:14:05;96227.34;;;3.16;72.45
12757;BME280;31601;48.042;12.240;2022-11-14T08:16:32;96227.47;;;3.14;72.62
12757;BME280;31601;48.042;12.240;2022-11-14T08:19:00;96224.84;;;3.44;72.18
12757;BME280;31601;48.042;12.240;2022-11-14T08:21:26;96223.34;;;3.51;72.31
12757;BME280;31601;48.042;12.240;2022-11-14T08:23:53;96223.34;;;3.51;72.55
12757;BME280;31601;48.042;12.240;2022-11-14T08:26:19;96226.41;;;3.74;72.39
12757;BME280;31601;48.042;12.240;2022-11-14T08:28:46;96220.19;;;3.94;71.96
12757;BME280;31601;48.042;12.240;2022-11-14T08:31:12;96222.03;;;4.12;71.93
12757;BME280;31601;48.042;12.240;2022-11-14T08:33:39;96214.53;;;4.09;71.75
12757;BME280;31601;48.042;12.240;2022-11-14T08:36:09;96212.75;;;4.37;71.37
12757;BME280;31601;48.042;12.240;2022-11-14T08:38:36;96213.03;;;4.62;71.02
12757;BME280;31601;48.042;12.240;2022-11-14T08:41:03;96217.28;;;4.99;70.62
12757;BME280;31601;48.042;12.240;2022-11-14T08:43:29;96217.03;;;5.10;70.23
12757;BME280;31601;48.042;12.240;2022-11-14T08:45:57;96206.41;;;5.48;70.10
12757;BME280;31601;48.042;12.240;2022-11-14T08:48:24;96205.38;;;5.67;69.19
12757;BME280;31601;48.042;12.240;2022-11-14T08:50:51;96200.75;;;6.05;69.67
12757;BME280;31601;48.042;12.240;2022-11-14T08:53:19;96201.38;;;6.41;68.37
12757;BME280;31601;48.042;12.240;2022-11-14T08:55:46;96196.56;;;6.20;68.15
12757;BME280;31601;48.042;12.240;2022-11-14T08:58:13;96186.22;;;6.45;67.47
12757;BME280;31601;48.042;12.240;2022-11-14T09:00:39;96186.59;;;6.07;69.33
12757;BME280;31601;48.042;12.240;2022-11-14T09:03:07;96174.53;;;6.49;68.22
12757;BME280;31601;48.042;12.240;2022-11-14T09:05:34;96180.78;;;6.97;67.50
12757;BME280;31601;48.042;12.240;2022-11-14T09:08:00;96188.59;;;7.22;66.96
12757;BME280;31601;48.042;12.240;2022-11-14T09:10:29;96182.72;;;7.53;66.89
12757;BME280;31601;48.042;12.240;2022-11-14T09:12:57;96179.28;;;7.44;65.99
12757;BME280;31601;48.042;12.240;2022-11-14T09:15:26;96177.97;;;7.57;66.15
12757;BME280;31601;48.042;12.240;2022-11-14T09:17:53;96189.06;;;7.59;66.25
12757;BME280;31601;48.042;12.240;2022-11-14T09:20:21;96197.38;;;7.62;66.30
12757;BME280;31601;48.042;12.240;2022-11-14T09:22:48;96193.47;;;7.66;66.57
12757;BME280;31601;48.042;12.240;2022-11-14T09:25:18;96190.69;;;7.68;67.20
12757;BME280;31601;48.042;12.240;2022-11-14T09:27:47;96184.97;;;7.64;68.95
12757;BME280;31601;48.042;12.240;2022-11-14T09:30:14;96176.47;;;7.79;68.40
12757;BME280;31601;48.042;12.240;2022-11-14T09:32:41;96178.38;;;7.93;67.58
12757;BME280;31601;48.042;12.240;2022-11-14T09:35:08;96174.91;;;8.01;67.10
12757;BME280;31601;48.042;12.240;2022-11-14T09:37:34;96175.66;;;8.18;67.36
12757;BME280;31601;48.042;12.240;2022-11-14T09:40:01;96173.31;;;8.31;67.71
12757;BME280;31601;48.042;12.240;2022-11-14T09:42:41;96166.41;;;8.38;68.87
12757;BME280;31601;48.042;12.240;2022-11-14T09:45:14;96171.34;;;8.65;68.04
12757;BME280;31601;48.042;12.240;2022-11-14T09:47:43;96171.16;;;8.74;67.64
12757;BME280;31601;48.042;12.240;2022-11-14T09:50:13;96175.00;;;8.87;67.28
12757;BME280;31601;48.042;12.240;2022-11-14T09:52:43;96179.63;;;9.00;67.48
12757;BME280;31601;48.042;12.240;2022-11-14T09:55:14;96177.53;;;8.95;68.44
12757;BME280;31601;48.042;12.240;2022-11-14T09:57:43;96172.81;;;9.13;68.05
12757;BME280;31601;48.042;12.240;2022-11-14T10:00:15;96175.38;;;9.22;68.38
12757;BME280;31601;48.042;12.240;2022-11-14T10:02:56;96176.84;;;9.24;69.47
12757;BME280;31601;48.042;12.240;2022-11-14T10:05:44;96176.56;;;9.19;70.92
12757;BME280;31601;48.042;12.240;2022-11-14T10:08:23;96178.84;;;9.37;70.07
12757;BME280;31601;48.042;12.240;2022-11-14T10:10:58;96176.88;;;9.54;70.26
12757;BME280;31601;48.042;12.240;2022-11-14T10:13:39;96175.63;;;9.50;69.96
12757;BME280;31601;48.042;12.240;2022-11-14T10:16:14;96158.78;;;9.82;69.11
12757;BME280;31601;48.042;12.240;2022-11-14T10:18:53;96172.41;;;10.23;67.84
12757;BME280;31601;48.042;12.240;2022-11-14T10:21:43;96170.47;;;10.31;66.41
12757;BME280;31601;48.042;12.240;2022-11-14T10:24:27;96181.13;;;10.30;66.52
12757;BME280;31601;48.042;12.240;2022-11-14T10:26:59;96180.13;;;10.82;65.59
12757;BME280;31601;48.042;12.240;2022-11-14T10:29:42;96177.66;;;10.74;65.80
12757;BME280;31601;48.042;12.240;2022-11-14T10:32:24;96177.84;;;10.94;66.01
12757;BME280;31601;48.042;12.240;2022-11-14T10:35:01;96180.50;;;11.22;65.00
12757;BME280;31601;48.042;12.240;2022-11-14T10:37:32;96182.56;;;11.27;65.94
12757;BME280;31601;48.042;12.240;2022-11-14T10:40:14;96180.97;;;11.54;65.72
12757;BME280;31601;48.042;12.240;2022-11-14T10:42:44;96173.44;;;11.73;65.18
12757;BME280;31601;48.042;12.240;2022-11-14T10:45:23;96177.19;;;11.92;65.20
12757;BME280;31601;48.042;12.240;2022-11-14T10:47:57;96169.72;;;12.30;64.34
12757;BME280;31601;48.042;12.240;2022-11-14T10:50:39;96161.09;;;12.50;61.21
12757;BME280;31601;48.042;12.240;2022-11-14T10:53:15;96157.38;;;12.99;60.75
12757;BME280;31601;48.042;12.240;2022-11-14T10:55:49;96150.69;;;13.23;60.33
12757;BME280;31601;48.042;12.240;2022-11-14T10:58:16;96149.66;;;13.31;60.41
12757;BME280;31601;48.042;12.240;2022-11-14T11:00:43;96152.94;;;13.47;60.28
12757;BME280;31601;48.042;12.240;2022-11-14T11:03:12;96147.25;;;13.76;60.19
12757;BME280;31601;48.042;12.240;2022-11-14T11:05:46;96142.97;;;13.89;59.38
12757;BME280;31601;48.042;12.240;2022-11-14T11:08:18;96127.03;;;14.15;59.47
12757;BME280;31601;48.042;12.240;2022-11-14T11:11:04;96116.03;;;14.25;57.69
12757;BME280;31601;48.042;12.240;2022-11-14T11:13:51;96109.72;;;14.33;57.25
12757;BME280;31601;48.042;12.240;2022-11-14T11:16:21;96104.69;;;14.25;56.04
12757;BME280;31601;48.042;12.240;2022-11-14T11:18:50;96101.91;;;14.51;54.79
12757;BME280;31601;48.042;12.240;2022-11-14T11:21:18;96107.16;;;14.97;54.49
12757;BME280;31601;48.042;12.240;2022-11-14T11:23:49;96113.59;;;15.01;53.45
12757;BME280;31601;48.042;12.240;2022-11-14T11:26:19;96123.78;;;15.29;53.35
12757;BME280;31601;48.042;12.240;2022-11-14T11:29:05;96125.50;;;15.42;53.62
12757;BME280;31601;48.042;12.240;2022-11-14T11:31:49;96122.78;;;15.24;54.12
12757;BME280;31601;48.042;12.240;2022-11-14T11:34:25;96127.59;;;15.08;58.04
12757;BME280;31601;48.042;12.240;2022-11-14T11:36:58;96122.94;;;15.29;58.35
12757;BME280;31601;48.042;12.240;2022-11-14T11:39:33;96119.44;;;15.35;58.50
12757;BME280;31601;48.042;12.240;2022-11-14T11:42:06;96114.84;;;15.49;57.90
12757;BME280;31601;48.042;12.240;2022-11-14T11:44:37;96114.81;;;15.55;57.02
12757;BME280;31601;48.042;12.240;2022-11-14T11:47:10;96121.78;;;15.68;56.43
12757;BME280;31601;48.042;12.240;2022-11-14T11:49:43;96117.72;;;15.66;55.76
12757;BME280;31601;48.042;12.240;2022-11-14T11:52:14;96121.34;;;15.71;55.83
12757;BME280;31601;48.042;12.240;2022-11-14T11:54:54;96128.38;;;15.84;56.37
12757;BME280;31601;48.042;12.240;2022-11-14T11:57:29;96130.88;;;15.98;55.62
12757;BME280;31601;48.042;12.240;2022-11-14T12:00:03;96120.56;;;15.89;55.23
12757;BME280;31601;48.042;12.240;2022-11-14T12:02:31;96120.06;;;15.99;54.90
12757;BME280;31601;48.042;12.240;2022-11-14T12:05:00;96123.44;;;15.88;54.64
12757;BME280;31601;48.042;12.240;2022-11-14T12:07:37;96117.66;;;15.98;54.22
12757;BME280;31601;48.042;12.240;2022-11-14T12:10:14;96115.16;;;16.03;54.13
12757;BME280;31601;48.042;12.240;2022-11-14T12:13:03;96127.13;;;15.87;54.38
12757;BME280;31601;48.042;12.240;2022-11-14T12:15:40;96124.41;;;15.93;54.79
12757;BME280;31601;48.042;12.240;2022-11-14T12:18:35;96120.75;;;16.13;54.43
12757;BME280;31601;48.042;12.240;2022-11-14T12:21:18;96117.34;;;16.06;53.30
12757;BME280;31601;48.042;12.240;2022-11-14T12:24:08;96128.69;;;15.95;51.93
12757;BME280;31601;48.042;12.240;2022-11-14T12:26:55;96121.91;;;15.80;53.37
12757;BME280;31601;48.042;12.240;2022-11-14T12:29:40;96125.94;;;16.01;54.89
12757;BME280;31601;48.042;12.240;2022-11-14T12:32:16;96126.53;;;16.22;55.13
12757;BME280;31601;48.042;12.240;2022-11-14T12:34:45;96123.63;;;16.42;53.06
12757;BME280;31601;48.042;12.240;2022-11-14T12:37:17;96124.22;;;16.44;52.64
12757;BME280;31601;48.042;12.240;2022-11-14T12:39:54;96122.59;;;16.43;50.94
12757;BME280;31601;48.042;12.240;2022-11-14T12:42:22;96125.38;;;16.48;51.61
12757;BME280;31601;48.042;12.240;2022-11-14T12:44:49;96128.91;;;16.42;50.73
12757;BME280;31601;48.042;12.240;2022-11-14T12:47:18;96133.75;;;16.33;50.29
12757;BME280;31601;48.042;12.240;2022-11-14T12:52:48;96150.72;;;15.88;52.85
12757;BME280;31601;48.042;12.240;2022-11-14T12:55:53;96156.97;;;15.69;54.12
12757;BME280;31601;48.042;12.240;2022-11-14T12:58:43;96154.81;;;15.84;53.73
12757;BME280;31601;48.042;12.240;2022-11-14T13:01:26;96163.88;;;15.70;54.26
12757;BME280;31601;48.042;12.240;2022-11-14T13:04:08;96170.13;;;15.57;53.92
12757;BME280;31601;48.042;12.240;2022-11-14T13:06:48;96163.56;;;15.60;53.69
12757;BME280;31601;48.042;12.240;2022-11-14T13:09:38;96173.50;;;15.39;52.80
12757;BME280;31601;48.042;12.240;2022-11-14T13:12:27;96162.50;;;15.42;54.10